createdAt,value
2022-11-05T00:00:34.009Z,13.00
2022-11-05T00:03:19.647Z,13.00
2022-11-05T00:06:07.126Z,12.90
2022-11-05T00:08:52.476Z,12.90
2022-11-05T00:11:19.186Z,12.90
2022-11-05T00:14:04.347Z,12.90
2022-11-05T00:16:46.320Z,13.00
2022-11-05T00:19:13.548Z,12.90
2022-11-05T00:21:58.824Z,12.90
2022-11-05T00:24:44.221Z,12.90
2022-11-05T00:27:11.201Z,12.90
2022-11-05T00:29:37.899Z,12.90
2022-11-05T00:32:04.793Z,12.90
2022-11-05T00:34:32.298Z,12.90
2022-11-05T00:36:59.115Z,12.90
2022-11-05T00:39:25.801Z,12.90
2022-11-05T00:42:11.293Z,12.90
2022-11-05T00:44:56.834Z,12.80
2022-11-05T00:47:42.332Z,12.90
2022-11-05T00:50:10.759Z,12.90
2022-11-05T00:52:57.243Z,12.90
2022-11-05T00:55:39.712Z,12.80
2022-11-05T00:58:10.131Z,12.80
2022-11-05T01:00:38.917Z,12.80
2022-11-05T01:03:08.103Z,12.80
2022-11-05T01:05:39.976Z,12.80
2022-11-05T01:08:07.244Z,12.80
2022-11-05T01:10:33.977Z,12.80
2022-11-05T01:13:00.725Z,12.80
2022-11-05T01:15:27.468Z,12.80
2022-11-05T01:17:54.226Z,12.70
2022-11-05T01:20:20.982Z,12.70
2022-11-05T01:22:47.712Z,12.70
2022-11-05T01:25:15.002Z,12.70
2022-11-05T01:27:41.704Z,12.70
2022-11-05T01:30:09.379Z,12.70
2022-11-05T01:32:37.442Z,12.70
2022-11-05T01:35:08.067Z,12.70
2022-11-05T01:37:35.563Z,12.70
2022-11-05T01:40:02.355Z,12.70
2022-11-05T01:42:32.375Z,12.70
2022-11-05T01:45:02.558Z,12.70
2022-11-05T01:47:41.505Z,12.70
2022-11-05T01:50:30.451Z,12.70
2022-11-05T01:53:04.568Z,12.70
2022-11-05T01:55:36.860Z,12.70
2022-11-05T01:58:07.702Z,12.70
2022-11-05T02:00:35.538Z,12.70
2022-11-05T02:03:02.581Z,12.70
2022-11-05T02:05:29.487Z,12.60
2022-11-05T02:07:56.550Z,12.70
2022-11-05T02:10:23.903Z,12.70
2022-11-05T02:12:50.681Z,12.70
2022-11-05T02:15:34.467Z,12.70
2022-11-05T02:18:19.825Z,12.70
2022-11-05T02:21:07.565Z,12.60
2022-11-05T02:23:58.953Z,12.60
2022-11-05T02:26:41.053Z,12.70
2022-11-05T02:29:19.807Z,12.60
2022-11-05T02:32:22.280Z,12.60
2022-11-05T02:35:02.397Z,12.60
2022-11-05T02:37:35.012Z,12.60
2022-11-05T02:40:26.915Z,12.60
2022-11-05T02:43:16.106Z,12.60
2022-11-05T02:46:09.849Z,12.60
2022-11-05T02:49:09.602Z,12.60
2022-11-05T02:51:53.742Z,12.60
2022-11-05T02:54:32.839Z,12.60
2022-11-05T02:57:02.873Z,12.60
2022-11-05T02:59:29.911Z,12.50
2022-11-05T03:01:57.993Z,12.60
2022-11-05T03:04:25.638Z,12.50
2022-11-05T03:07:11.220Z,12.50
2022-11-05T03:09:50.451Z,12.50
2022-11-05T03:12:32.189Z,12.50
2022-11-05T03:15:07.860Z,12.50
2022-11-05T03:17:48.689Z,12.50
2022-11-05T03:20:15.361Z,12.50
2022-11-05T03:22:54.359Z,12.50
2022-11-05T03:25:24.125Z,12.50
2022-11-05T03:27:55.816Z,12.40
2022-11-05T03:30:24.817Z,12.40
2022-11-05T03:32:59.252Z,12.40
2022-11-05T03:35:34.205Z,12.40
2022-11-05T03:38:06.267Z,12.40
2022-11-05T03:40:36.617Z,12.40
2022-11-05T03:43:07.721Z,12.40
2022-11-05T03:45:57.565Z,12.40
2022-11-05T03:48:29.092Z,12.40
2022-11-05T03:51:37.792Z,12.50
2022-11-05T03:54:05.394Z,12.50
2022-11-05T03:57:02.137Z,12.50
2022-11-05T03:59:31.387Z,12.40
2022-11-05T04:01:58.708Z,12.40
2022-11-05T04:04:25.573Z,12.40
2022-11-05T04:07:10.772Z,12.40
2022-11-05T04:09:56.240Z,12.40
2022-11-05T04:12:41.793Z,12.40
2022-11-05T04:15:08.814Z,12.40
2022-11-05T04:17:35.486Z,12.40
2022-11-05T04:20:20.970Z,12.40
2022-11-05T04:23:06.616Z,12.40
2022-11-05T04:25:33.802Z,12.40
2022-11-05T04:28:00.694Z,12.40
2022-11-05T04:30:28.480Z,12.40
2022-11-05T04:33:16.081Z,12.40
2022-11-05T04:35:49.283Z,12.40
2022-11-05T04:38:18.604Z,12.40
2022-11-05T04:40:46.577Z,12.40
2022-11-05T04:43:18.709Z,12.40
2022-11-05T04:45:46.313Z,12.40
2022-11-05T04:48:13.144Z,12.40
2022-11-05T04:50:40.026Z,12.40
2022-11-05T04:53:06.713Z,12.30
2022-11-05T04:55:33.391Z,12.30
2022-11-05T04:58:00.034Z,12.30
2022-11-05T05:00:26.882Z,12.30
2022-11-05T05:02:53.684Z,12.30
2022-11-05T05:05:22.517Z,12.30
2022-11-05T05:07:50.362Z,12.30
2022-11-05T05:10:17.212Z,12.40
2022-11-05T05:12:43.962Z,12.30
2022-11-05T05:15:10.646Z,12.30
2022-11-05T05:17:37.484Z,12.40
2022-11-05T05:20:23.214Z,12.40
2022-11-05T05:22:56.070Z,12.40
2022-11-05T05:25:23.247Z,12.40
2022-11-05T05:27:49.920Z,12.40
2022-11-05T05:30:16.873Z,12.40
2022-11-05T05:32:43.794Z,12.40
2022-11-05T05:35:10.597Z,12.40
2022-11-05T05:37:37.233Z,12.40
2022-11-05T05:40:04.505Z,12.30
2022-11-05T05:42:31.219Z,12.30
2022-11-05T05:44:57.876Z,12.30
2022-11-05T05:47:24.603Z,12.30
2022-11-05T05:49:51.626Z,12.30
2022-11-05T05:52:18.387Z,12.30
2022-11-05T05:54:45.093Z,12.30
2022-11-05T05:57:11.842Z,12.30
2022-11-05T05:59:38.676Z,12.30
2022-11-05T06:02:05.410Z,12.30
2022-11-05T06:04:32.215Z,12.30
2022-11-05T06:06:58.970Z,12.30
2022-11-05T06:09:25.692Z,12.30
2022-11-05T06:11:52.454Z,12.30
2022-11-05T06:14:19.202Z,12.30
2022-11-05T06:16:45.892Z,12.30
2022-11-05T06:19:12.534Z,12.30
2022-11-05T06:21:39.381Z,12.30
2022-11-05T06:24:06.405Z,12.30
2022-11-05T06:26:34.017Z,12.30
2022-11-05T06:29:00.683Z,12.40
2022-11-05T06:31:27.366Z,12.40
2022-11-05T06:33:54.114Z,12.50
2022-11-05T06:36:21.273Z,12.50
2022-11-05T06:38:48.107Z,12.50
2022-11-05T06:41:15.198Z,12.50
2022-11-05T06:43:42.104Z,12.50
2022-11-05T06:46:10.992Z,12.50
2022-11-05T06:48:38.240Z,12.50
2022-11-05T06:51:05.821Z,12.50
2022-11-05T06:53:34.440Z,12.50
2022-11-05T06:56:09.925Z,12.50
2022-11-05T06:58:36.825Z,12.50
2022-11-05T07:01:09.036Z,12.50
2022-11-05T07:03:37.284Z,12.50
2022-11-05T07:06:06.013Z,12.40
2022-11-05T07:08:36.363Z,12.40
2022-11-05T07:11:03.726Z,12.50
2022-11-05T07:13:30.496Z,12.40
2022-11-05T07:15:57.631Z,12.40
2022-11-05T07:18:24.327Z,12.40
2022-11-05T07:20:50.969Z,12.40
2022-11-05T07:23:17.661Z,12.50
2022-11-05T07:25:44.636Z,12.50
2022-11-05T07:28:11.859Z,12.50
2022-11-05T07:30:39.362Z,12.50
2022-11-05T07:33:06.159Z,12.60
2022-11-05T07:35:32.961Z,12.60
2022-11-05T07:37:59.808Z,12.60
2022-11-05T07:40:27.811Z,12.60
2022-11-05T07:42:57.242Z,12.70
2022-11-05T07:45:24.923Z,12.80
2022-11-05T07:47:57.102Z,12.80
2022-11-05T07:50:26.355Z,12.90
2022-11-05T07:52:53.576Z,13.00
2022-11-05T07:55:20.771Z,13.00
2022-11-05T07:57:50.113Z,13.00
2022-11-05T08:00:21.481Z,13.00
2022-11-05T08:03:03.816Z,13.10
2022-11-05T08:05:36.923Z,13.10
2022-11-05T08:08:04.673Z,13.10
2022-11-05T08:10:31.654Z,13.10
2022-11-05T08:12:58.448Z,13.10
2022-11-05T08:15:25.613Z,13.10
2022-11-05T08:18:00.504Z,13.10
2022-11-05T08:20:27.833Z,13.20
2022-11-05T08:22:54.982Z,13.20
2022-11-05T08:25:21.728Z,13.20
2022-11-05T08:27:48.579Z,13.10
2022-11-05T08:30:15.265Z,13.10
2022-11-05T08:32:41.946Z,13.10
2022-11-05T08:35:08.891Z,13.10
2022-11-05T08:37:35.527Z,13.10
2022-11-05T08:40:02.294Z,13.00
2022-11-05T08:42:29.037Z,13.00
2022-11-05T08:44:55.762Z,13.00
2022-11-05T08:47:22.468Z,13.00
2022-11-05T08:49:49.212Z,12.90
2022-11-05T08:52:15.915Z,12.90
2022-11-05T08:54:43.651Z,12.90
2022-11-05T08:57:10.316Z,12.90
2022-11-05T08:59:36.969Z,12.90
2022-11-05T09:02:03.996Z,12.90
2022-11-05T09:04:30.922Z,12.90
2022-11-05T09:06:57.662Z,12.90
2022-11-05T09:09:24.311Z,12.90
2022-11-05T09:12:11.768Z,12.80
2022-11-05T09:14:38.397Z,12.90
2022-11-05T09:17:12.041Z,13.00
2022-11-05T09:19:40.269Z,13.20
2022-11-05T09:22:07.107Z,13.30
2022-11-05T09:24:33.757Z,13.30
2022-11-05T09:27:00.406Z,13.40
2022-11-05T09:29:27.103Z,13.40
2022-11-05T09:31:53.778Z,13.40
2022-11-05T09:34:20.483Z,13.40
2022-11-05T09:36:47.477Z,13.40
2022-11-05T09:39:14.286Z,13.40
2022-11-05T09:41:43.497Z,13.50
2022-11-05T09:44:17.235Z,13.40
2022-11-05T09:46:55.637Z,13.40
2022-11-05T09:49:40.016Z,13.40
2022-11-05T09:52:13.584Z,13.40
2022-11-05T09:54:40.438Z,13.40
2022-11-05T09:57:13.244Z,13.40
2022-11-05T09:59:46.464Z,13.40
2022-11-05T10:02:17.407Z,13.30
2022-11-05T10:04:48.843Z,13.30
2022-11-05T10:07:21.264Z,13.30
2022-11-05T10:09:53.573Z,13.30
2022-11-05T10:12:31.831Z,13.30
2022-11-05T10:15:14.737Z,13.30
2022-11-05T10:17:47.675Z,13.30
2022-11-05T10:20:35.710Z,13.30
2022-11-05T10:23:09.683Z,13.30
2022-11-05T10:25:41.072Z,13.30
2022-11-05T10:28:09.953Z,13.40
2022-11-05T10:30:37.272Z,13.40
2022-11-05T10:33:06.536Z,13.40
2022-11-05T10:35:40.530Z,13.40
2022-11-05T10:38:09.245Z,13.40
2022-11-05T10:40:48.146Z,13.40
2022-11-05T10:43:18.387Z,13.40
2022-11-05T10:46:09.413Z,13.40
2022-11-05T10:49:03.208Z,13.50
2022-11-05T10:51:31.760Z,13.40
2022-11-05T10:54:07.477Z,13.40
2022-11-05T10:56:39.515Z,13.50
2022-11-05T10:59:21.951Z,13.50
2022-11-05T11:02:00.854Z,13.50
2022-11-05T11:04:36.549Z,13.50
2022-11-05T11:07:04.716Z,13.60
2022-11-05T11:09:35.722Z,13.60
2022-11-05T11:12:13.166Z,13.60
2022-11-05T11:14:42.741Z,13.60
2022-11-05T11:17:16.930Z,13.70
2022-11-05T11:19:45.346Z,13.70
2022-11-05T11:22:19.755Z,13.70
2022-11-05T11:24:52.006Z,13.70
2022-11-05T11:27:31.471Z,13.70
2022-11-05T11:30:04.135Z,13.70
2022-11-05T11:32:39.538Z,13.70
2022-11-05T11:35:18.650Z,13.70
2022-11-05T11:37:46.462Z,13.70
2022-11-05T11:40:34.080Z,13.80
2022-11-05T11:43:05.043Z,13.80
2022-11-05T11:45:44.207Z,13.80
2022-11-05T11:48:17.145Z,13.80
2022-11-05T11:50:46.510Z,13.90
2022-11-05T11:53:26.114Z,13.90
2022-11-05T11:55:56.439Z,13.90
2022-11-05T11:58:45.342Z,13.90
2022-11-05T12:01:20.785Z,13.90
2022-11-05T12:03:53.946Z,13.90
2022-11-05T12:06:51.690Z,13.90
2022-11-05T12:09:26.764Z,14.00
2022-11-05T12:12:03.076Z,14.00
2022-11-05T12:14:54.632Z,14.00
2022-11-05T12:17:34.683Z,14.00
2022-11-05T12:20:30.010Z,14.00
2022-11-05T12:23:22.460Z,14.10
2022-11-05T12:26:08.263Z,14.10
2022-11-05T12:29:23.968Z,14.10
2022-11-05T12:32:17.149Z,14.10
2022-11-05T12:34:55.654Z,14.20
2022-11-05T12:38:07.555Z,14.20
2022-11-05T12:40:51.217Z,14.20
2022-11-05T12:43:40.475Z,14.20
2022-11-05T12:46:42.004Z,14.20
2022-11-05T12:49:23.840Z,14.30
2022-11-05T12:52:04.604Z,14.30
2022-11-05T12:55:01.899Z,14.30
2022-11-05T12:57:31.402Z,14.30
2022-11-05T13:00:19.745Z,14.30
2022-11-05T13:03:17.068Z,14.30
2022-11-05T13:05:54.407Z,14.30
2022-11-05T13:08:31.465Z,14.30
2022-11-05T13:11:06.229Z,14.30
2022-11-05T13:13:39.779Z,14.30
2022-11-05T13:16:30.404Z,14.30
2022-11-05T13:19:02.727Z,14.40
2022-11-05T13:21:30.086Z,14.40
2022-11-05T13:24:17.828Z,14.40
2022-11-05T13:27:09.450Z,14.50
2022-11-05T13:29:47.626Z,14.50
2022-11-05T13:32:29.164Z,14.50
2022-11-05T13:34:56.838Z,14.50
2022-11-05T13:37:49.470Z,14.50
2022-11-05T13:40:20.558Z,14.50
2022-11-05T13:43:06.167Z,14.50
2022-11-05T13:45:54.646Z,14.50
2022-11-05T13:48:37.634Z,14.60
2022-11-05T13:51:39.203Z,14.60
2022-11-05T13:54:39.715Z,14.60
2022-11-05T13:57:20.019Z,14.50
2022-11-05T14:00:11.468Z,14.50
2022-11-05T14:02:48.061Z,14.60
2022-11-05T14:05:39.981Z,14.50
2022-11-05T14:08:24.499Z,14.60
2022-11-05T14:11:04.803Z,14.60
2022-11-05T14:13:37.548Z,14.60
2022-11-05T14:16:08.956Z,14.60
2022-11-05T14:18:46.757Z,14.60
2022-11-05T14:21:25.555Z,14.60
2022-11-05T14:24:17.824Z,14.60
2022-11-05T14:27:05.455Z,14.60
2022-11-05T14:29:40.571Z,14.60
2022-11-05T14:32:21.698Z,14.60
2022-11-05T14:35:38.056Z,14.70
2022-11-05T14:38:17.019Z,14.70
2022-11-05T14:40:47.024Z,14.70
2022-11-05T14:43:19.291Z,14.70
2022-11-05T14:46:00.538Z,14.80
2022-11-05T14:48:38.017Z,14.80
2022-11-05T14:51:28.728Z,14.80
2022-11-05T14:54:09.407Z,14.80
2022-11-05T14:56:43.609Z,14.80
2022-11-05T14:59:19.265Z,14.80
2022-11-05T15:01:46.213Z,14.80
2022-11-05T15:04:26.884Z,14.80
2022-11-05T15:07:02.669Z,14.80
2022-11-05T15:09:49.064Z,14.80
2022-11-05T15:12:29.899Z,14.80
2022-11-05T15:15:02.635Z,14.80
2022-11-05T15:17:33.136Z,14.80
2022-11-05T15:20:22.431Z,14.80
2022-11-05T15:23:03.203Z,14.80
2022-11-05T15:25:57.481Z,14.80
2022-11-05T15:28:42.661Z,14.70
2022-11-05T15:31:12.274Z,14.80
2022-11-05T15:33:40.558Z,14.80
2022-11-05T15:36:25.404Z,14.80
2022-11-05T15:39:23.050Z,14.70
2022-11-05T15:41:39.497Z,14.70
2022-11-05T15:44:06.153Z,14.70
2022-11-05T15:46:32.867Z,14.70
2022-11-05T15:49:05.057Z,14.70
2022-11-05T15:51:31.811Z,14.70
2022-11-05T15:56:54.534Z,14.70
2022-11-05T15:59:23.579Z,14.70
2022-11-05T16:02:10.929Z,14.70
2022-11-05T16:04:37.717Z,14.70
2022-11-05T16:07:11.119Z,14.70
2022-11-05T16:09:41.256Z,14.70
2022-11-05T16:12:13.329Z,14.70
2022-11-05T16:14:41.081Z,14.70
2022-11-05T16:17:21.638Z,14.70
2022-11-05T16:19:49.231Z,14.70
2022-11-05T16:22:16.482Z,14.70
2022-11-05T16:24:44.159Z,14.70
2022-11-05T16:27:19.444Z,14.70
2022-11-05T16:30:05.073Z,14.70
2022-11-05T16:32:31.927Z,14.70
2022-11-05T16:35:06.967Z,14.70
2022-11-05T16:37:41.662Z,14.70
2022-11-05T16:40:17.577Z,14.70
2022-11-05T16:42:48.326Z,14.70
2022-11-05T16:45:16.746Z,14.70
2022-11-05T16:47:44.892Z,14.70
2022-11-05T16:50:32.508Z,14.70
2022-11-05T16:52:59.272Z,14.70
2022-11-05T16:55:26.131Z,14.70
2022-11-05T16:57:54.819Z,14.60
2022-11-05T17:00:22.010Z,14.60
2022-11-05T17:02:49.088Z,14.60
2022-11-05T17:05:24.064Z,14.60
2022-11-05T17:07:50.970Z,14.60
2022-11-05T17:10:18.327Z,14.60
2022-11-05T17:12:45.651Z,14.60
2022-11-05T17:15:17.020Z,14.60
2022-11-05T17:17:43.705Z,14.60
2022-11-05T17:20:25.814Z,14.60
2022-11-05T17:22:52.458Z,14.60
2022-11-05T17:25:19.112Z,14.60
2022-11-05T17:27:45.777Z,14.60
2022-11-05T17:30:13.231Z,14.50
2022-11-05T17:32:39.969Z,14.60
2022-11-05T17:35:07.682Z,14.60
2022-11-05T17:37:34.681Z,14.60
2022-11-05T17:40:02.115Z,14.60
2022-11-05T17:42:28.862Z,14.60
2022-11-05T17:44:55.498Z,14.60
2022-11-05T17:47:22.248Z,14.60
2022-11-05T17:49:49.018Z,14.60
2022-11-05T17:52:15.659Z,14.50
2022-11-05T17:54:42.408Z,14.50
2022-11-05T17:57:09.056Z,14.50
2022-11-05T17:59:35.729Z,14.50
2022-11-05T18:02:02.710Z,14.50
2022-11-05T18:04:29.566Z,14.50
2022-11-05T18:06:56.214Z,14.50
2022-11-05T18:09:23.143Z,14.50
2022-11-05T18:11:49.839Z,14.50
2022-11-05T18:14:23.690Z,14.50
2022-11-05T18:16:51.700Z,14.50
2022-11-05T18:19:18.446Z,14.50
2022-11-05T18:21:45.274Z,14.50
2022-11-05T18:24:12.686Z,14.50
2022-11-05T18:26:39.375Z,14.50
2022-11-05T18:29:06.408Z,14.50
2022-11-05T18:31:33.066Z,14.60
2022-11-05T18:34:00.518Z,14.50
2022-11-05T18:36:29.834Z,14.50
2022-11-05T18:39:01.584Z,14.50
2022-11-05T18:41:28.370Z,14.50
2022-11-05T18:44:02.498Z,14.50
2022-11-05T18:46:56.458Z,14.40
2022-11-05T18:49:18.005Z,14.50
2022-11-05T18:51:44.781Z,14.40
2022-11-05T18:54:11.407Z,14.40
2022-11-05T18:56:44.689Z,14.40
2022-11-05T18:59:35.240Z,14.40
2022-11-05T19:02:00.170Z,14.40
2022-11-05T19:04:27.045Z,14.40
2022-11-05T19:06:56.140Z,14.40
2022-11-05T19:09:25.626Z,14.30
2022-11-05T19:11:52.356Z,14.40
2022-11-05T19:14:19.385Z,14.40
2022-11-05T19:16:46.059Z,14.30
2022-11-05T19:19:13.273Z,14.30
2022-11-05T19:21:39.987Z,14.30
2022-11-05T19:24:07.048Z,14.30
2022-11-05T19:26:34.084Z,14.30
2022-11-05T19:29:03.106Z,14.30
2022-11-05T19:31:31.189Z,14.30
2022-11-05T19:33:58.050Z,14.40
2022-11-05T19:36:25.472Z,14.30
2022-11-05T19:39:08.708Z,14.30
2022-11-05T19:41:35.544Z,14.30
2022-11-05T19:44:02.326Z,14.30
2022-11-05T19:46:30.528Z,14.30
2022-11-05T19:48:57.598Z,14.30
2022-11-05T19:51:26.916Z,14.30
2022-11-05T19:53:55.209Z,14.30
2022-11-05T19:56:24.453Z,14.20
2022-11-05T19:58:53.025Z,14.20
2022-11-05T20:01:21.431Z,14.30
2022-11-05T20:03:48.420Z,14.20
2022-11-05T20:06:22.154Z,14.20
2022-11-05T20:09:15.292Z,14.20
2022-11-05T20:11:39.942Z,14.20
2022-11-05T20:14:10.400Z,14.20
2022-11-05T20:16:39.052Z,14.20
2022-11-05T20:19:08.067Z,14.20
2022-11-05T20:21:35.354Z,14.20
2022-11-05T20:24:02.523Z,14.20
2022-11-05T20:26:30.194Z,14.20
2022-11-05T20:28:56.976Z,14.20
2022-11-05T20:31:23.778Z,14.10
2022-11-05T20:33:51.201Z,14.10
2022-11-05T20:36:20.184Z,14.10
2022-11-05T20:39:02.778Z,14.10
2022-11-05T20:41:30.687Z,14.10
2022-11-05T20:43:57.532Z,14.10
2022-11-05T20:46:24.557Z,14.10
2022-11-05T20:48:51.756Z,14.20
2022-11-05T20:51:20.651Z,14.10
2022-11-05T20:53:48.824Z,14.10
2022-11-05T20:56:22.736Z,14.20
2022-11-05T20:58:49.992Z,14.10
2022-11-05T21:01:17.813Z,14.10
2022-11-05T21:03:46.167Z,14.10
2022-11-05T21:06:13.566Z,14.10
2022-11-05T21:08:40.508Z,14.00
2022-11-05T21:11:07.884Z,14.00
2022-11-05T21:13:34.954Z,14.00
2022-11-05T21:16:02.168Z,14.00
2022-11-05T21:18:31.610Z,14.10
2022-11-05T21:21:00.437Z,14.10
2022-11-05T21:23:28.654Z,14.10
2022-11-05T21:25:55.907Z,14.10
2022-11-05T21:28:23.297Z,14.10
2022-11-05T21:30:50.020Z,14.10
2022-11-05T21:33:18.547Z,14.10
2022-11-05T21:35:48.579Z,14.00
2022-11-05T21:38:17.190Z,14.00
2022-11-05T21:40:44.808Z,14.10
2022-11-05T21:43:13.174Z,14.10
2022-11-05T21:45:45.193Z,14.00
2022-11-05T21:48:15.106Z,14.00
2022-11-05T21:51:01.460Z,14.00
2022-11-05T21:53:46.966Z,14.10
2022-11-05T21:56:43.263Z,14.00
2022-11-05T21:59:31.844Z,14.00
2022-11-05T22:02:01.687Z,14.00
2022-11-05T22:04:39.033Z,14.00
2022-11-05T22:07:14.299Z,14.00
2022-11-05T22:09:40.986Z,14.00
2022-11-05T22:12:09.164Z,14.00
2022-11-05T22:14:36.109Z,14.00
2022-11-05T22:17:03.750Z,14.00
2022-11-05T22:19:30.848Z,14.00
2022-11-05T22:21:57.708Z,14.00
2022-11-05T22:24:24.502Z,14.00
2022-11-05T22:26:51.234Z,13.90
2022-11-05T22:29:18.095Z,14.00
2022-11-05T22:31:45.106Z,14.00
2022-11-05T22:34:13.485Z,13.90
2022-11-05T22:36:40.130Z,14.00
2022-11-05T22:39:07.385Z,14.00
2022-11-05T22:41:34.541Z,13.90
2022-11-05T22:44:03.246Z,13.90
2022-11-05T22:46:30.157Z,13.90
2022-11-05T22:48:58.221Z,13.90
2022-11-05T22:51:31.130Z,13.90
2022-11-05T22:53:58.880Z,13.90
2022-11-05T22:56:27.968Z,13.90
2022-11-05T22:58:55.060Z,13.90
2022-11-05T23:01:22.996Z,13.90
2022-11-05T23:03:51.722Z,13.90
2022-11-05T23:06:43.153Z,13.80
2022-11-05T23:09:43.358Z,13.90
2022-11-05T23:12:33.745Z,13.90
2022-11-05T23:15:02.319Z,13.80
2022-11-05T23:17:47.873Z,13.90
2022-11-05T23:20:37.402Z,13.80
2022-11-05T23:23:24.556Z,13.80
2022-11-05T23:25:56.819Z,13.80
2022-11-05T23:28:23.478Z,13.80
2022-11-05T23:31:08.895Z,13.80
2022-11-05T23:33:35.829Z,13.80
2022-11-05T23:36:21.683Z,13.80
2022-11-05T23:38:48.420Z,13.80
2022-11-05T23:41:34.524Z,13.90
2022-11-05T23:44:20.024Z,13.80
2022-11-05T23:47:19.231Z,13.90
2022-11-05T23:49:45.859Z,13.90
2022-11-05T23:52:12.500Z,13.90
2022-11-05T23:54:39.159Z,13.90
2022-11-05T23:57:05.786Z,13.90
2022-11-05T23:59:32.441Z,13.90
